Terminal Aerodrome Forecast
Issued by NWS

Home | Current Version | Previous Version | Text Only | Print | Product List | Glossary Off
Versions: 1 2 3 4 5 6 7 8 9 10 11 12 13 14

000
FTUS43 KMPX 242300
TAFRWF
TAF
KRWF 242322Z 2500/2524 24006KT P6SM VCSH BKN100
     FM250300 25004KT P6SM SCT150
     FM251400 28007KT P6SM FEW040
     FM251800 28009KT P6SM SCT050 SCT120=

USA.gov is the U.S. government's official web portal to all federal, state and local government web resources and services.